Time;durP1;ratioP1;P1;durP2;ratioP2;P2;SDS_P1;SDS_P2;PMS_P1;PMS_P2;Temp;Humidity;BMP_temperature;BMP_pressure;BME280_temperature;BME280_humidity;BME280_pressure;Samples;Min_cycle;Max_cycle;Signal;HPM_P1;HPM_P2
2023/10/11 00:00:34;;;;;;;14.70;6.28;;;;;;;;;;5111382;28;20051;-53
2023/10/11 00:03:05;;;;;;;12.40;5.43;;;;;;;;;;5109209;28;20040;-57
2023/10/11 00:05:40;;;;;;;15.05;5.78;;;;;;;;;;5108632;28;20040;-51
2023/10/11 00:08:09;;;;;;;14.23;6.13;;;;;;;;;;5106608;28;20046;-50
2023/10/11 00:10:43;;;;;;;12.77;5.45;;;;;;;;;;5108474;28;20040;-50
2023/10/11 00:13:15;;;;;;;14.82;5.57;;;;;;;;;;5111359;28;20042;-52
2023/10/11 00:15:42;;;;;;;15.10;6.07;;;;;;;;;;5106504;28;20044;-54
2023/10/11 00:18:10;;;;;;;14.35;6.18;;;;;;;;;;5110911;28;20044;-48
2023/10/11 00:20:50;;;;;;;15.32;5.80;;;;;;;;;;5109996;28;20051;-49
2023/10/11 00:23:21;;;;;;;16.73;6.03;;;;;;;;;;5107776;28;20094;-49
2023/10/11 00:25:50;;;;;;;13.27;5.97;;;;;;;;;;5109092;28;20276;-49
2023/10/11 00:28:19;;;;;;;16.95;6.90;;;;;;;;;;5110851;28;20134;-51
2023/10/11 00:30:47;;;;;;;17.95;6.93;;;;;;;;;;5107690;28;20091;-48
2023/10/11 00:33:14;;;;;;;16.40;7.32;;;;;;;;;;5107576;28;20250;-51
2023/10/11 00:35:47;;;;;;;19.13;7.65;;;;;;;;;;5105571;28;20045;-48
2023/10/11 00:38:18;;;;;;;18.05;7.72;;;;;;;;;;5107746;28;20047;-52
2023/10/11 00:40:48;;;;;;;17.67;7.70;;;;;;;;;;5110884;28;20098;-49
2023/10/11 00:43:19;;;;;;;14.70;6.55;;;;;;;;;;5102579;28;20491;-50
2023/10/11 00:45:46;;;;;;;17.02;6.47;;;;;;;;;;5106804;28;20530;-51
2023/10/11 00:48:15;;;;;;;16.73;6.15;;;;;;;;;;5107767;27;20329;-53
2023/10/11 00:50:43;;;;;;;14.10;6.43;;;;;;;;;;5106440;28;20044;-51
2023/10/11 00:53:12;;;;;;;14.57;5.78;;;;;;;;;;5107696;28;20047;-51
2023/10/11 00:55:41;;;;;;;14.50;5.47;;;;;;;;;;5110120;28;20055;-50
2023/10/11 00:58:09;;;;;;;17.95;6.22;;;;;;;;;;5109555;27;20035;-51
2023/10/11 01:00:36;;;;;;;14.13;5.90;;;;;;;;;;5110842;27;20047;-53
2023/10/11 01:03:07;;;;;;;13.95;6.05;;;;;;;;;;5109159;28;20427;-54
2023/10/11 01:05:43;;;;;;;12.60;5.70;;;;;;;;;;5110835;28;20071;-55
2023/10/11 01:08:10;;;;;;;16.73;5.25;;;;;;;;;;5102672;28;20058;-51
2023/10/11 01:10:38;;;;;;;14.07;5.53;;;;;;;;;;5108478;27;20574;-53
2023/10/11 01:13:05;;;;;;;11.50;5.50;;;;;;;;;;5109796;28;20052;-52
2023/10/11 01:15:33;;;;;;;16.50;6.15;;;;;;;;;;5106485;28;20048;-52
2023/10/11 01:18:00;;;;;;;17.83;6.43;;;;;;;;;;5107718;28;20048;-53
2023/10/11 01:20:29;;;;;;;15.45;6.38;;;;;;;;;;5108301;28;20047;-49
2023/10/11 01:22:57;;;;;;;16.10;5.85;;;;;;;;;;5107163;28;20125;-54
2023/10/11 01:25:24;;;;;;;12.60;5.32;;;;;;;;;;5106263;28;20048;-50
2023/10/11 01:27:51;;;;;;;15.75;6.55;;;;;;;;;;5106665;28;20509;-51
2023/10/11 01:30:17;;;;;;;13.75;5.90;;;;;;;;;;5103671;28;20043;-48
2023/10/11 01:32:44;;;;;;;12.05;5.30;;;;;;;;;;5110104;28;20402;-52
2023/10/11 01:35:13;;;;;;;18.58;5.72;;;;;;;;;;5108267;28;20050;-51
2023/10/11 01:37:43;;;;;;;13.00;5.47;;;;;;;;;;5106788;28;20075;-55
2023/10/11 01:40:20;;;;;;;18.45;5.50;;;;;;;;;;5107882;28;20530;-52
2023/10/11 01:42:49;;;;;;;14.15;5.53;;;;;;;;;;5107679;28;20514;-52
2023/10/11 01:45:17;;;;;;;15.55;6.72;;;;;;;;;;5104063;28;20059;-54
2023/10/11 01:47:46;;;;;;;16.88;6.38;;;;;;;;;;5105897;28;20104;-51
2023/10/11 01:50:13;;;;;;;15.60;6.38;;;;;;;;;;5104607;28;20112;-51
2023/10/11 01:52:40;;;;;;;16.05;6.57;;;;;;;;;;5108804;28;20059;-52
2023/10/11 01:55:10;;;;;;;15.13;6.80;;;;;;;;;;5105649;28;20057;-51
2023/10/11 01:57:39;;;;;;;24.45;7.38;;;;;;;;;;5106966;27;20438;-51
2023/10/11 02:00:13;;;;;;;13.27;5.80;;;;;;;;;;5108300;28;20036;-52
2023/10/11 02:02:45;;;;;;;16.45;6.55;;;;;;;;;;5109011;28;20544;-53
2023/10/11 02:05:13;;;;;;;12.38;5.85;;;;;;;;;;5108958;28;20048;-52
2023/10/11 02:07:40;;;;;;;12.75;6.15;;;;;;;;;;5106330;28;20066;-52
2023/10/11 02:10:08;;;;;;;11.13;4.80;;;;;;;;;;5107649;28;20505;-50
2023/10/11 02:12:35;;;;;;;13.73;5.70;;;;;;;;;;5107459;28;20051;-55
2023/10/11 02:15:07;;;;;;;18.25;5.93;;;;;;;;;;5105251;28;20376;-51
2023/10/11 02:17:37;;;;;;;12.60;5.72;;;;;;;;;;5107682;28;20508;-52
2023/10/11 02:20:06;;;;;;;13.88;5.88;;;;;;;;;;5100858;28;20557;-52
2023/10/11 02:22:33;;;;;;;18.75;5.95;;;;;;;;;;5111234;28;20051;-53
2023/10/11 02:25:00;;;;;;;12.20;4.93;;;;;;;;;;5097853;28;20407;-53
2023/10/11 02:27:26;;;;;;;13.57;5.10;;;;;;;;;;5101820;28;20055;-53
2023/10/11 02:29:53;;;;;;;16.58;5.32;;;;;;;;;;5112065;28;20047;-52
2023/10/11 02:32:21;;;;;;;11.27;4.93;;;;;;;;;;5095014;28;20054;-56
2023/10/11 02:34:49;;;;;;;13.93;4.97;;;;;;;;;;5111882;28;20051;-55
2023/10/11 02:37:16;;;;;;;13.93;5.43;;;;;;;;;;5102472;28;20474;-53
2023/10/11 02:39:44;;;;;;;15.38;5.82;;;;;;;;;;5098902;28;20051;-56
2023/10/11 02:42:10;;;;;;;14.10;5.57;;;;;;;;;;5114302;28;20039;-53
2023/10/11 02:44:39;;;;;;;13.75;5.57;;;;;;;;;;5103322;28;20135;-57
2023/10/11 02:47:06;;;;;;;14.38;5.38;;;;;;;;;;5102242;28;20040;-55
2023/10/11 02:49:34;;;;;;;14.15;5.43;;;;;;;;;;5101121;28;20101;-52
2023/10/11 02:52:06;;;;;;;12.98;5.88;;;;;;;;;;5116060;28;20035;-52
2023/10/11 02:54:38;;;;;;;16.88;6.60;;;;;;;;;;5111989;28;20044;-53
2023/10/11 02:57:06;;;;;;;20.30;6.82;;;;;;;;;;5109649;28;20043;-52
2023/10/11 02:59:33;;;;;;;15.52;6.93;;;;;;;;;;5111464;28;20083;-52
2023/10/11 03:02:00;;;;;;;14.70;6.18;;;;;;;;;;5117148;28;20130;-54
2023/10/11 03:04:29;;;;;;;14.32;5.28;;;;;;;;;;5122751;28;20050;-56
2023/10/11 03:07:00;;;;;;;15.82;6.50;;;;;;;;;;5110362;28;20047;-54
2023/10/11 03:09:27;;;;;;;14.23;5.88;;;;;;;;;;5109760;28;20043;-51
2023/10/11 03:11:56;;;;;;;15.23;6.78;;;;;;;;;;5112979;28;20047;-52
2023/10/11 03:14:27;;;;;;;19.23;7.75;;;;;;;;;;5118570;28;20058;-52
2023/10/11 03:16:59;;;;;;;15.13;6.45;;;;;;;;;;5108539;28;20122;-54
2023/10/11 03:19:26;;;;;;;13.93;6.20;;;;;;;;;;5110007;28;20400;-52
2023/10/11 03:21:54;;;;;;;18.52;6.80;;;;;;;;;;5114305;28;20127;-53
2023/10/11 03:24:25;;;;;;;16.75;6.05;;;;;;;;;;5111540;28;20500;-50
2023/10/11 03:26:51;;;;;;;17.75;5.93;;;;;;;;;;5104632;28;20039;-49
2023/10/11 03:29:21;;;;;;;12.90;5.78;;;;;;;;;;5109878;28;20517;-51
2023/10/11 03:31:48;;;;;;;15.48;6.75;;;;;;;;;;5098368;28;20131;-49
2023/10/11 03:34:17;;;;;;;19.17;5.80;;;;;;;;;;5099293;28;20044;-56
2023/10/11 03:36:49;;;;;;;16.83;7.50;;;;;;;;;;5109673;28;20047;-50
2023/10/11 03:39:26;;;;;;;16.55;6.60;;;;;;;;;;5094011;28;20048;-55
2023/10/11 03:42:06;;;;;;;17.25;6.43;;;;;;;;;;5090760;28;20227;-49
2023/10/11 03:44:35;;;;;;;15.60;6.20;;;;;;;;;;5110253;28;20047;-51
2023/10/11 03:47:06;;;;;;;15.23;6.78;;;;;;;;;;5111786;28;20047;-55
2023/10/11 03:49:47;;;;;;;17.35;6.97;;;;;;;;;;5110830;28;20047;-49
2023/10/11 03:52:19;;;;;;;21.30;6.65;;;;;;;;;;5114907;28;20112;-57
2023/10/11 03:54:46;;;;;;;22.20;6.03;;;;;;;;;;5107363;28;20047;-50
2023/10/11 03:57:17;;;;;;;14.32;6.43;;;;;;;;;;5114733;28;20055;-53
2023/10/11 03:59:48;;;;;;;12.63;5.30;;;;;;;;;;5109321;28;20044;-51
2023/10/11 04:02:17;;;;;;;16.83;5.75;;;;;;;;;;5102499;28;20048;-53
2023/10/11 04:04:45;;;;;;;12.57;5.15;;;;;;;;;;5106699;28;20134;-50
2023/10/11 04:07:13;;;;;;;14.27;5.13;;;;;;;;;;5114651;28;20043;-53
2023/10/11 04:09:44;;;;;;;11.90;4.82;;;;;;;;;;5114570;28;20044;-50
2023/10/11 04:12:12;;;;;;;14.05;5.80;;;;;;;;;;5106353;28;20479;-56
2023/10/11 04:14:44;;;;;;;11.85;5.00;;;;;;;;;;5105708;28;20130;-57
2023/10/11 04:17:25;;;;;;;13.48;5.40;;;;;;;;;;5114665;28;20131;-51
2023/10/11 04:19:54;;;;;;;16.88;5.28;;;;;;;;;;5107773;28;20043;-51
2023/10/11 04:22:24;;;;;;;13.85;5.28;;;;;;;;;;5109063;28;20051;-50
2023/10/11 04:24:53;;;;;;;13.98;5.32;;;;;;;;;;5113534;28;20048;-49
2023/10/11 04:27:47;;;;;;;13.52;5.63;;;;;;;;;;5114073;28;20312;-52
2023/10/11 04:30:17;;;;;;;12.88;5.85;;;;;;;;;;5114129;28;20040;-58
2023/10/11 04:32:46;;;;;;;17.23;6.93;;;;;;;;;;5106077;28;20056;-53
2023/10/11 04:35:21;;;;;;;14.75;6.13;;;;;;;;;;5114231;28;20087;-56
2023/10/11 04:37:54;;;;;;;19.98;8.23;;;;;;;;;;5107068;28;20147;-55
2023/10/11 04:40:38;;;;;;;17.38;6.00;;;;;;;;;;5104897;28;20051;-48
2023/10/11 04:43:06;;;;;;;15.43;5.40;;;;;;;;;;5093385;28;20055;-53
2023/10/11 04:45:44;;;;;;;16.02;6.55;;;;;;;;;;5112842;28;20530;-54
2023/10/11 04:48:14;;;;;;;11.95;6.47;;;;;;;;;;5112490;27;20071;-51
2023/10/11 04:50:47;;;;;;;15.70;7.20;;;;;;;;;;5109915;27;20070;-51
2023/10/11 04:53:18;;;;;;;14.77;6.93;;;;;;;;;;5109256;27;20437;-49
2023/10/11 04:55:47;;;;;;;14.05;6.15;;;;;;;;;;5114366;27;20088;-56
2023/10/11 04:58:21;;;;;;;16.33;6.47;;;;;;;;;;5105082;28;20048;-52
2023/10/11 05:00:54;;;;;;;15.00;6.07;;;;;;;;;;5099427;28;20040;-51
2023/10/11 05:03:28;;;;;;;14.00;6.10;;;;;;;;;;5109959;28;20513;-53
2023/10/11 05:05:59;;;;;;;12.98;6.30;;;;;;;;;;5098661;28;20063;-57
2023/10/11 05:08:51;;;;;;;14.38;6.65;;;;;;;;;;5110360;28;20039;-53
2023/10/11 05:11:24;;;;;;;13.93;6.40;;;;;;;;;;5110956;27;20541;-54
2023/10/11 05:14:05;;;;;;;13.45;6.50;;;;;;;;;;5110103;28;20131;-52
2023/10/11 05:16:37;;;;;;;18.98;7.10;;;;;;;;;;5108068;27;20047;-49
2023/10/11 05:19:05;;;;;;;13.65;6.57;;;;;;;;;;5118583;27;20080;-49
2023/10/11 05:21:38;;;;;;;21.48;6.03;;;;;;;;;;5113938;27;20050;-55
2023/10/11 05:24:14;;;;;;;11.13;5.88;;;;;;;;;;5112177;27;20043;-54
2023/10/11 05:26:47;;;;;;;16.13;5.10;;;;;;;;;;5108256;28;20051;-52
2023/10/11 05:29:24;;;;;;;14.57;5.75;;;;;;;;;;5110462;28;20048;-49
2023/10/11 05:32:19;;;;;;;17.45;5.20;;;;;;;;;;5103028;28;20530;-49
2023/10/11 05:34:51;;;;;;;12.93;5.82;;;;;;;;;;5098030;28;20094;-50
2023/10/11 05:50:59;;;;;;;20.40;8.65;;;;;;;;;;5109861;28;20088;-50
2023/10/11 05:53:28;;;;;;;17.90;7.45;;;;;;;;;;5112226;28;20134;-53
2023/10/11 05:55:54;;;;;;;16.58;7.75;;;;;;;;;;5112511;28;20048;-53
2023/10/11 05:58:21;;;;;;;16.77;6.47;;;;;;;;;;5112904;28;20075;-52
2023/10/11 06:00:53;;;;;;;18.05;7.35;;;;;;;;;;5109570;28;20522;-49
2023/10/11 06:03:24;;;;;;;16.63;6.35;;;;;;;;;;5103104;28;20461;-51
2023/10/11 06:05:51;;;;;;;18.58;7.68;;;;;;;;;;5091882;28;20396;-54
2023/10/11 06:08:18;;;;;;;15.75;6.75;;;;;;;;;;5115726;27;20487;-55
2023/10/11 06:10:44;;;;;;;16.13;6.85;;;;;;;;;;5108810;28;20574;-49
2023/10/11 06:13:14;;;;;;;15.63;7.10;;;;;;;;;;5104763;28;20054;-54
2023/10/11 06:15:45;;;;;;;18.90;7.40;;;;;;;;;;5103365;28;20424;-49
2023/10/11 06:18:36;;;;;;;17.50;6.40;;;;;;;;;;5109149;28;20048;-54
2023/10/11 06:21:05;;;;;;;12.95;7.53;;;;;;;;;;5108583;28;20604;-53
2023/10/11 06:23:33;;;;;;;15.70;6.53;;;;;;;;;;5108951;28;20051;-53
2023/10/11 06:26:20;;;;;;;17.17;6.90;;;;;;;;;;5108884;28;20047;-51
2023/10/11 06:28:45;;;;;;;15.50;6.15;;;;;;;;;;5106243;28;20523;-52
2023/10/11 06:31:14;;;;;;;18.08;6.60;;;;;;;;;;5110250;27;20046;-51
2023/10/11 06:33:45;;;;;;;16.45;6.57;;;;;;;;;;5110897;27;20043;-50
2023/10/11 06:36:16;;;;;;;17.23;7.03;;;;;;;;;;5114864;28;20039;-53
2023/10/11 06:38:43;;;;;;;16.60;5.65;;;;;;;;;;5108697;27;20377;-52
2023/10/11 06:43:51;;;;;;;12.70;4.88;;;;;;;;;;5103818;28;20427;-50
2023/10/11 06:46:19;;;;;;;19.90;7.03;;;;;;;;;;5111769;28;20079;-53
2023/10/11 06:48:45;;;;;;;16.08;6.78;;;;;;;;;;5111670;28;20047;-51
2023/10/11 06:51:14;;;;;;;14.90;6.43;;;;;;;;;;5111489;28;20135;-54
2023/10/11 06:53:45;;;;;;;14.60;5.35;;;;;;;;;;5111544;28;20063;-56
2023/10/11 06:56:16;;;;;;;16.77;5.18;;;;;;;;;;5111969;28;20060;-52
2023/10/11 06:58:45;;;;;;;14.40;5.32;;;;;;;;;;5111882;28;20044;-51
2023/10/11 07:01:13;;;;;;;15.13;4.97;;;;;;;;;;5111794;28;20043;-54
2023/10/11 07:03:40;;;;;;;14.25;5.20;;;;;;;;;;5111801;28;20071;-50
2023/10/11 07:06:11;;;;;;;15.40;5.35;;;;;;;;;;5111005;28;20044;-59
2023/10/11 07:08:49;;;;;;;11.27;4.65;;;;;;;;;;5105965;28;20048;-54
2023/10/11 07:11:40;;;;;;;18.40;5.55;;;;;;;;;;5104451;28;20048;-57
2023/10/11 07:14:14;;;;;;;15.40;4.82;;;;;;;;;;5109387;28;20036;-54
2023/10/11 07:16:44;;;;;;;12.10;4.28;;;;;;;;;;5107813;28;20495;-54
2023/10/11 07:19:11;;;;;;;11.77;5.22;;;;;;;;;;5107835;28;20150;-51
2023/10/11 07:21:53;;;;;;;12.07;4.72;;;;;;;;;;5107951;28;20055;-57
2023/10/11 07:24:31;;;;;;;11.85;5.63;;;;;;;;;;5099712;28;20048;-54
2023/10/11 07:26:59;;;;;;;15.65;6.25;;;;;;;;;;5106829;28;20392;-54
2023/10/11 07:29:26;;;;;;;13.13;5.35;;;;;;;;;;5105609;28;20611;-51
2023/10/11 07:31:53;;;;;;;14.95;5.97;;;;;;;;;;5104720;27;20059;-56
2023/10/11 07:34:20;;;;;;;17.55;6.18;;;;;;;;;;5111301;28;20060;-57
2023/10/11 07:36:48;;;;;;;17.73;6.70;;;;;;;;;;5109793;28;20051;-58
2023/10/11 07:39:19;;;;;;;14.80;6.10;;;;;;;;;;5112846;27;20465;-56
2023/10/11 07:41:48;;;;;;;13.77;7.13;;;;;;;;;;5108405;27;20474;-55
2023/10/11 07:44:18;;;;;;;12.85;5.85;;;;;;;;;;5110119;27;20460;-58
2023/10/11 07:46:45;;;;;;;11.57;4.38;;;;;;;;;;5110250;27;20119;-55
2023/10/11 07:49:22;;;;;;;13.32;5.28;;;;;;;;;;5110409;28;20119;-56
2023/10/11 07:51:52;;;;;;;17.15;5.82;;;;;;;;;;5109977;27;20066;-57
2023/10/11 07:54:20;;;;;;;15.75;5.22;;;;;;;;;;5106585;27;20048;-55
2023/10/11 07:56:49;;;;;;;10.23;4.45;;;;;;;;;;5109433;28;20429;-55
2023/10/11 07:59:16;;;;;;;17.02;4.80;;;;;;;;;;5108700;27;20085;-53
2023/10/11 08:01:45;;;;;;;14.20;5.72;;;;;;;;;;5111611;27;20070;-56
2023/10/11 08:04:17;;;;;;;14.60;5.30;;;;;;;;;;5105833;27;20138;-58
2023/10/11 08:06:44;;;;;;;15.82;5.45;;;;;;;;;;5112622;27;21154;-57
2023/10/11 08:09:18;;;;;;;12.73;4.60;;;;;;;;;;5108166;27;20043;-57
2023/10/11 08:11:48;;;;;;;15.35;5.95;;;;;;;;;;5107743;28;20044;-54
2023/10/11 08:14:16;;;;;;;16.53;5.20;;;;;;;;;;5110623;28;20054;-53
2023/10/11 08:16:47;;;;;;;15.02;4.40;;;;;;;;;;5103587;28;20510;-57
2023/10/11 08:19:14;;;;;;;14.05;5.60;;;;;;;;;;5106446;27;20043;-54
2023/10/11 08:21:41;;;;;;;9.68;4.22;;;;;;;;;;5107213;28;20040;-55
2023/10/11 08:24:15;;;;;;;17.13;6.72;;;;;;;;;;5109493;28;20043;-54
2023/10/11 08:26:44;;;;;;;12.70;5.30;;;;;;;;;;5105124;28;20044;-58
2023/10/11 08:29:17;;;;;;;12.55;4.70;;;;;;;;;;5110912;27;20063;-56
2023/10/11 08:31:48;;;;;;;15.00;4.68;;;;;;;;;;5106488;27;20079;-55
2023/10/11 08:34:15;;;;;;;13.75;4.70;;;;;;;;;;5107820;28;20051;-60
2023/10/11 08:36:44;;;;;;;12.37;5.03;;;;;;;;;;5109337;28;20091;-52
2023/10/11 08:39:13;;;;;;;10.35;4.78;;;;;;;;;;5107720;28;20447;-57
2023/10/11 08:41:43;;;;;;;13.25;4.82;;;;;;;;;;5104652;28;20055;-58
2023/10/11 08:44:20;;;;;;;13.20;4.35;;;;;;;;;;5110240;27;20040;-55
2023/10/11 08:46:51;;;;;;;13.93;4.50;;;;;;;;;;5109021;27;20130;-55
2023/10/11 08:49:18;;;;;;;13.18;5.63;;;;;;;;;;5107306;28;20083;-51
2023/10/11 08:51:48;;;;;;;10.75;4.90;;;;;;;;;;5108501;28;20048;-55
2023/10/11 08:54:17;;;;;;;10.18;3.80;;;;;;;;;;5110693;28;20119;-54
2023/10/11 08:56:48;;;;;;;12.38;4.60;;;;;;;;;;5107727;28;20134;-51
2023/10/11 08:59:15;;;;;;;10.05;3.50;;;;;;;;;;5099865;28;20048;-55
2023/10/11 09:01:45;;;;;;;10.75;3.50;;;;;;;;;;5109721;28;20043;-52
2023/10/11 09:04:14;;;;;;;14.53;3.73;;;;;;;;;;5110140;28;20055;-52
2023/10/11 09:06:43;;;;;;;10.13;4.93;;;;;;;;;;5113218;27;20147;-53
2023/10/11 09:09:14;;;;;;;14.05;4.88;;;;;;;;;;5108680;27;20055;-60
2023/10/11 09:11:53;;;;;;;11.95;4.53;;;;;;;;;;5108651;27;20101;-57
2023/10/11 09:14:23;;;;;;;9.02;4.20;;;;;;;;;;5108706;27;20054;-55
2023/10/11 09:16:51;;;;;;;9.77;3.33;;;;;;;;;;5110136;27;20047;-57
2023/10/11 09:19:20;;;;;;;11.40;3.47;;;;;;;;;;5108581;27;20143;-56
2023/10/11 09:22:03;;;;;;;13.07;4.47;;;;;;;;;;5110923;27;20055;-57
2023/10/11 09:24:37;;;;;;;17.30;4.03;;;;;;;;;;5107963;27;20070;-53
2023/10/11 09:27:18;;;;;;;8.13;3.75;;;;;;;;;;5106359;28;20572;-53
2023/10/11 09:29:46;;;;;;;10.98;4.25;;;;;;;;;;5109991;27;20044;-52
2023/10/11 09:32:19;;;;;;;9.82;3.53;;;;;;;;;;5104707;28;20062;-53
2023/10/11 09:34:47;;;;;;;9.65;3.75;;;;;;;;;;5113471;27;20092;-51
2023/10/11 09:37:13;;;;;;;11.63;3.65;;;;;;;;;;5104390;28;20116;-50
2023/10/11 09:39:42;;;;;;;9.93;3.92;;;;;;;;;;5105828;27;20415;-56
2023/10/11 09:42:13;;;;;;;11.68;3.47;;;;;;;;;;5106881;27;20130;-51
2023/10/11 09:44:44;;;;;;;13.32;4.03;;;;;;;;;;5108048;28;20133;-52
2023/10/11 09:47:16;;;;;;;10.18;4.53;;;;;;;;;;5104899;27;20087;-53
2023/10/11 09:49:43;;;;;;;10.85;3.60;;;;;;;;;;5107384;27;20050;-58
2023/10/11 09:52:16;;;;;;;12.48;4.13;;;;;;;;;;5106524;27;20043;-49
2023/10/11 09:54:43;;;;;;;12.65;4.70;;;;;;;;;;5105916;27;20054;-51
2023/10/11 09:57:20;;;;;;;9.23;3.22;;;;;;;;;;5108298;27;20400;-56
2023/10/11 09:59:51;;;;;;;9.05;4.05;;;;;;;;;;5112209;27;20036;-55
2023/10/11 10:02:24;;;;;;;16.05;3.60;;;;;;;;;;5107074;28;20074;-56
2023/10/11 10:04:57;;;;;;;10.57;3.97;;;;;;;;;;5103606;28;20470;-57
2023/10/11 10:07:32;;;;;;;8.90;3.40;;;;;;;;;;5105138;28;20043;-52
2023/10/11 10:10:01;;;;;;;9.50;4.03;;;;;;;;;;5102447;28;20487;-54
2023/10/11 10:12:33;;;;;;;12.10;4.00;;;;;;;;;;5108384;27;20047;-53
2023/10/11 10:15:09;;;;;;;10.40;4.53;;;;;;;;;;5103428;28;20061;-57
2023/10/11 10:17:38;;;;;;;12.05;4.50;;;;;;;;;;5103376;28;20039;-55
2023/10/11 10:20:45;;;;;;;11.32;4.70;;;;;;;;;;5104301;28;20048;-58
2023/10/11 10:23:32;;;;;;;12.30;4.32;;;;;;;;;;5107828;28;20150;-56
2023/10/11 10:26:43;;;;;;;10.75;3.42;;;;;;;;;;5105673;27;20062;-54
2023/10/11 10:29:12;;;;;;;11.40;3.28;;;;;;;;;;5103361;28;20049;-53
2023/10/11 10:32:06;;;;;;;14.93;3.95;;;;;;;;;;5102793;28;20051;-58
2023/10/11 10:34:33;;;;;;;17.27;3.92;;;;;;;;;;5108711;28;20051;-55
2023/10/11 10:37:07;;;;;;;9.30;3.10;;;;;;;;;;5108784;28;20054;-51
2023/10/11 10:39:46;;;;;;;11.63;4.10;;;;;;;;;;5103160;28;20657;-55
2023/10/11 10:42:15;;;;;;;12.70;3.50;;;;;;;;;;5107276;28;20062;-54
2023/10/11 10:45:04;;;;;;;9.73;3.30;;;;;;;;;;5104420;28;20411;-61
2023/10/11 10:47:32;;;;;;;13.07;3.53;;;;;;;;;;5101106;28;20043;-57
2023/10/11 10:50:06;;;;;;;11.23;3.33;;;;;;;;;;5106082;28;20082;-53
2023/10/11 10:52:31;;;;;;;10.38;3.45;;;;;;;;;;5103876;28;20081;-62
2023/10/11 10:55:05;;;;;;;12.70;3.78;;;;;;;;;;5107487;28;20051;-55
2023/10/11 10:57:31;;;;;;;9.35;3.83;;;;;;;;;;5106822;28;20594;-55
2023/10/11 11:00:05;;;;;;;10.05;4.40;;;;;;;;;;5107877;27;20039;-61
2023/10/11 11:02:33;;;;;;;14.43;3.55;;;;;;;;;;5110232;27;20039;-55
2023/10/11 11:05:00;;;;;;;9.85;3.40;;;;;;;;;;5111682;27;20066;-53
2023/10/11 11:07:26;;;;;;;9.80;3.47;;;;;;;;;;5111126;27;20050;-53
2023/10/11 11:09:57;;;;;;;10.90;3.55;;;;;;;;;;5104915;27;20043;-51
2023/10/11 11:12:31;;;;;;;13.23;4.65;;;;;;;;;;5108071;28;20040;-51
2023/10/11 11:14:59;;;;;;;13.60;3.97;;;;;;;;;;5110383;27;20122;-54
2023/10/11 11:17:45;;;;;;;8.90;3.50;;;;;;;;;;5111099;27;20379;-58
2023/10/11 11:20:15;;;;;;;13.30;3.97;;;;;;;;;;5112046;27;20502;-54
2023/10/11 11:22:41;;;;;;;14.77;3.58;;;;;;;;;;5113932;27;20069;-55
2023/10/11 11:25:26;;;;;;;12.30;4.30;;;;;;;;;;5111199;27;20138;-54
2023/10/11 11:28:16;;;;;;;12.63;3.85;;;;;;;;;;5107992;28;20052;-58
2023/10/11 11:30:44;;;;;;;12.80;4.13;;;;;;;;;;5111964;27;20485;-56
2023/10/11 11:33:28;;;;;;;11.07;3.90;;;;;;;;;;5109553;28;20538;-56
2023/10/11 11:35:55;;;;;;;12.00;4.05;;;;;;;;;;5110308;28;20044;-54
2023/10/11 11:38:21;;;;;;;11.25;3.33;;;;;;;;;;5113091;27;20051;-56
2023/10/11 11:40:48;;;;;;;8.02;3.60;;;;;;;;;;5108818;28;20159;-55
2023/10/11 11:43:19;;;;;;;10.77;3.67;;;;;;;;;;5111084;27;20043;-55
2023/10/11 11:45:47;;;;;;;9.63;3.33;;;;;;;;;;5110704;28;20043;-55
2023/10/11 11:48:14;;;;;;;10.45;3.72;;;;;;;;;;5116193;27;20039;-53
2023/10/11 11:50:40;;;;;;;13.10;3.85;;;;;;;;;;5116795;27;20510;-52
2023/10/11 11:53:07;;;;;;;9.57;3.50;;;;;;;;;;5107343;28;20039;-52
2023/10/11 11:55:35;;;;;;;12.27;3.85;;;;;;;;;;5103595;27;20054;-51
2023/10/11 11:58:10;;;;;;;13.02;3.92;;;;;;;;;;5113191;27;20073;-57
2023/10/11 12:00:45;;;;;;;10.73;4.05;;;;;;;;;;5105783;27;20043;-59
2023/10/11 12:03:11;;;;;;;11.25;3.15;;;;;;;;;;5109536;27;20490;-50
2023/10/11 12:05:40;;;;;;;14.70;4.20;;;;;;;;;;5108720;27;20139;-52
2023/10/11 12:08:08;;;;;;;13.07;4.07;;;;;;;;;;5109029;27;20044;-52
2023/10/11 12:10:35;;;;;;;11.18;3.83;;;;;;;;;;5110276;28;20047;-60
2023/10/11 12:13:08;;;;;;;9.15;3.75;;;;;;;;;;5110826;28;20118;-53
2023/10/11 12:15:35;;;;;;;14.73;4.30;;;;;;;;;;5109355;28;20031;-53
2023/10/11 12:18:09;;;;;;;11.23;3.42;;;;;;;;;;5112669;27;20054;-52
2023/10/11 12:20:36;;;;;;;9.95;3.33;;;;;;;;;;5108141;27;20046;-53
2023/10/11 12:23:11;;;;;;;10.52;3.70;;;;;;;;;;5110778;27;20047;-53
2023/10/11 12:25:38;;;;;;;13.52;3.95;;;;;;;;;;5108790;28;20052;-56
2023/10/11 12:28:06;;;;;;;11.82;3.88;;;;;;;;;;5108058;28;20046;-63
2023/10/11 12:30:35;;;;;;;10.43;4.00;;;;;;;;;;5107833;28;20051;-53
2023/10/11 12:33:06;;;;;;;11.80;3.72;;;;;;;;;;5107587;28;20423;-60
2023/10/11 12:35:39;;;;;;;8.95;4.15;;;;;;;;;;5102168;27;20066;-65
2023/10/11 12:38:06;;;;;;;11.63;3.60;;;;;;;;;;5110887;27;20047;-58
2023/10/11 12:40:34;;;;;;;12.23;3.80;;;;;;;;;;5111445;27;20211;-48
2023/10/11 12:43:02;;;;;;;10.93;4.40;;;;;;;;;;5110309;27;20044;-54
2023/10/11 12:45:28;;;;;;;10.48;3.00;;;;;;;;;;5107654;27;20047;-60
2023/10/11 12:47:55;;;;;;;8.77;3.33;;;;;;;;;;5108878;27;20043;-60
2023/10/11 12:50:23;;;;;;;12.68;4.38;;;;;;;;;;5109733;27;20043;-50
2023/10/11 12:52:52;;;;;;;11.07;4.18;;;;;;;;;;5109560;27;20053;-54
2023/10/11 12:55:20;;;;;;;13.25;4.43;;;;;;;;;;5109874;27;20075;-57
2023/10/11 12:57:48;;;;;;;13.45;4.93;;;;;;;;;;5105728;27;20096;-50
2023/10/11 13:00:28;;;;;;;12.25;3.92;;;;;;;;;;5110947;27;20047;-64
2023/10/11 13:02:58;;;;;;;14.88;4.38;;;;;;;;;;5112094;27;20055;-53
2023/10/11 13:05:28;;;;;;;12.32;3.65;;;;;;;;;;5104641;27;20106;-54
2023/10/11 13:07:55;;;;;;;12.43;4.03;;;;;;;;;;5111136;27;20042;-56
2023/10/11 13:10:23;;;;;;;10.43;3.92;;;;;;;;;;5111945;27;20047;-56
2023/10/11 13:12:53;;;;;;;12.15;3.97;;;;;;;;;;5115466;27;20126;-56
2023/10/11 13:15:22;;;;;;;12.50;3.90;;;;;;;;;;5112079;27;20054;-53
2023/10/11 13:17:49;;;;;;;9.70;4.57;;;;;;;;;;5105830;28;20054;-55
2023/10/11 13:20:19;;;;;;;8.32;3.47;;;;;;;;;;5105365;28;20047;-59
2023/10/11 13:22:48;;;;;;;10.98;4.15;;;;;;;;;;5108555;27;20092;-53
2023/10/11 13:25:23;;;;;;;9.35;3.85;;;;;;;;;;5111305;28;20535;-54
2023/10/11 13:27:54;;;;;;;7.88;3.50;;;;;;;;;;5109656;27;20043;-52
2023/10/11 13:30:22;;;;;;;8.32;3.50;;;;;;;;;;5109203;27;20067;-59
2023/10/11 13:32:49;;;;;;;10.57;3.63;;;;;;;;;;5109562;27;20152;-57
2023/10/11 13:35:16;;;;;;;9.25;3.97;;;;;;;;;;5107651;27;20125;-55
2023/10/11 13:37:46;;;;;;;11.30;4.18;;;;;;;;;;5108256;28;20058;-59
2023/10/11 13:40:16;;;;;;;9.07;3.60;;;;;;;;;;5108345;27;20092;-53
2023/10/11 13:42:42;;;;;;;12.93;3.42;;;;;;;;;;5112281;27;20046;-49
2023/10/11 13:45:14;;;;;;;9.02;3.17;;;;;;;;;;5109719;27;20040;-53
2023/10/11 13:47:41;;;;;;;7.72;3.58;;;;;;;;;;5113624;27;20097;-53
2023/10/11 13:50:20;;;;;;;10.35;3.50;;;;;;;;;;5113570;27;20054;-54
2023/10/11 13:52:51;;;;;;;12.07;4.35;;;;;;;;;;5108543;28;20051;-54
2023/10/11 13:55:23;;;;;;;13.65;3.67;;;;;;;;;;5115558;27;20057;-53
2023/10/11 13:57:55;;;;;;;9.48;3.50;;;;;;;;;;5107323;27;20309;-53
2023/10/11 14:03:38;;;;;;;9.18;3.25;;;;;;;;;;5110926;27;20512;-54
2023/10/11 14:06:21;;;;;;;11.77;3.65;;;;;;;;;;5112527;27;20055;-52
2023/10/11 14:08:48;;;;;;;10.18;3.53;;;;;;;;;;5110466;27;20046;-56
2023/10/11 14:11:18;;;;;;;9.05;3.53;;;;;;;;;;5108963;27;20047;-55
2023/10/11 14:13:50;;;;;;;11.02;3.67;;;;;;;;;;5109512;27;20052;-51
2023/10/11 14:16:27;;;;;;;7.90;3.35;;;;;;;;;;5109614;27;20040;-54
2023/10/11 14:18:56;;;;;;;13.10;4.20;;;;;;;;;;5108018;28;20054;-55
2023/10/11 14:21:24;;;;;;;7.53;3.10;;;;;;;;;;5107995;28;20513;-56
2023/10/11 14:23:51;;;;;;;12.90;4.72;;;;;;;;;;5104083;28;20044;-55
2023/10/11 14:26:22;;;;;;;11.18;3.22;;;;;;;;;;5109309;28;20135;-56
2023/10/11 14:28:49;;;;;;;10.02;3.28;;;;;;;;;;5108318;28;20104;-58
2023/10/11 14:31:18;;;;;;;8.02;3.00;;;;;;;;;;5108812;27;20427;-55
2023/10/11 14:33:48;;;;;;;10.55;3.53;;;;;;;;;;5110506;27;20039;-57
2023/10/11 14:36:14;;;;;;;9.82;3.50;;;;;;;;;;5108457;28;20051;-53
2023/10/11 14:38:41;;;;;;;9.27;3.40;;;;;;;;;;5109383;28;20130;-57
2023/10/11 14:41:09;;;;;;;9.57;3.10;;;;;;;;;;5108710;28;20503;-57
2023/10/11 14:43:37;;;;;;;9.98;3.88;;;;;;;;;;5110218;28;20058;-56
2023/10/11 14:46:06;;;;;;;12.75;3.60;;;;;;;;;;5105901;28;20479;-57
2023/10/11 14:48:34;;;;;;;8.35;4.07;;;;;;;;;;5111585;27;20075;-56
2023/10/11 14:51:04;;;;;;;8.98;3.60;;;;;;;;;;5108714;28;20043;-54
2023/10/11 14:53:33;;;;;;;13.15;4.03;;;;;;;;;;5107239;28;20143;-57
2023/10/11 14:56:03;;;;;;;7.15;3.70;;;;;;;;;;5108679;28;20305;-53
2023/10/11 14:58:30;;;;;;;6.30;3.58;;;;;;;;;;5108976;28;20081;-55
2023/10/11 15:00:58;;;;;;;10.60;3.50;;;;;;;;;;5109770;28;20047;-51
2023/10/11 15:03:25;;;;;;;16.73;4.35;;;;;;;;;;5108626;28;20062;-54
2023/10/11 15:05:51;;;;;;;10.48;4.05;;;;;;;;;;5104366;28;20586;-56
2023/10/11 15:08:18;;;;;;;11.73;3.60;;;;;;;;;;5107785;28;20050;-53
2023/10/11 15:10:46;;;;;;;10.82;4.10;;;;;;;;;;5110468;28;20039;-59